createdAt,value
2022-12-08T00:02:27.132Z,1.85
2022-12-08T00:05:13.038Z,1.40
2022-12-08T00:08:00.060Z,1.85
2022-12-08T00:10:48.550Z,1.40
2022-12-08T00:13:16.874Z,1.73
2022-12-08T00:15:45.215Z,1.50
2022-12-08T00:18:13.580Z,1.50
2022-12-08T00:20:44.004Z,1.38
2022-12-08T00:23:13.770Z,1.48
2022-12-08T00:25:42.076Z,1.50
2022-12-08T00:28:10.504Z,1.33
2022-12-08T00:30:41.485Z,1.67
2022-12-08T00:33:10.015Z,1.20
2022-12-08T00:35:42.902Z,1.10
2022-12-08T00:38:13.082Z,1.38
2022-12-08T00:40:45.533Z,1.38
2022-12-08T00:43:14.269Z,1.20
2022-12-08T00:45:42.630Z,1.25
2022-12-08T00:48:11.043Z,1.45
2022-12-08T00:50:39.410Z,1.02
2022-12-08T00:53:09.847Z,1.10
2022-12-08T00:55:40.164Z,1.30
2022-12-08T00:58:10.906Z,1.10
2022-12-08T01:00:42.257Z,1.30
2022-12-08T01:03:11.882Z,1.27
2022-12-08T01:05:40.730Z,1.52
2022-12-08T01:08:10.313Z,1.50
2022-12-08T01:10:40.725Z,1.80
2022-12-08T01:13:09.033Z,2.40
2022-12-08T01:15:37.884Z,2.50
2022-12-08T01:18:08.284Z,2.80
2022-12-08T01:20:36.606Z,2.40
2022-12-08T01:23:04.948Z,2.60
2022-12-08T01:25:35.548Z,2.63
2022-12-08T01:28:05.646Z,2.80
2022-12-08T01:30:36.103Z,3.28
2022-12-08T01:33:04.576Z,2.95
2022-12-08T01:35:33.077Z,2.35
2022-12-08T01:38:01.389Z,2.30
2022-12-08T01:40:29.735Z,1.92
2022-12-08T01:43:00.158Z,2.20
2022-12-08T01:45:32.620Z,2.28
2022-12-08T01:48:05.339Z,2.50
2022-12-08T01:50:34.532Z,2.80
2022-12-08T01:53:08.590Z,2.75
2022-12-08T01:55:41.207Z,3.72
2022-12-08T01:58:17.808Z,3.10
2022-12-08T02:00:52.598Z,3.63
2022-12-08T02:03:26.616Z,3.22
2022-12-08T02:05:55.105Z,4.38
2022-12-08T02:08:24.706Z,4.82
2022-12-08T02:10:53.492Z,3.92
2022-12-08T02:13:24.440Z,4.22
2022-12-08T02:16:01.438Z,4.70
2022-12-08T02:18:57.652Z,7.68
2022-12-08T02:21:42.509Z,8.23
2022-12-08T02:24:16.790Z,9.65
2022-12-08T02:27:32.929Z,10.07
2022-12-08T02:30:08.817Z,10.70
2022-12-08T02:33:09.409Z,10.93
2022-12-08T02:35:46.374Z,11.50
2022-12-08T02:38:28.154Z,11.32
2022-12-08T02:41:07.643Z,11.75
2022-12-08T02:43:43.699Z,11.90
2022-12-08T02:46:19.227Z,11.70
2022-12-08T02:48:48.451Z,11.48
2022-12-08T02:51:20.993Z,11.20
2022-12-08T02:53:50.354Z,11.30
2022-12-08T02:56:43.534Z,10.90
2022-12-08T02:59:28.924Z,10.77
2022-12-08T03:02:12.887Z,11.27
2022-12-08T03:04:48.216Z,10.77
2022-12-08T03:07:25.133Z,10.95
2022-12-08T03:09:57.834Z,10.85
2022-12-08T03:12:31.537Z,10.70
2022-12-08T03:15:05.275Z,11.25
2022-12-08T03:17:34.414Z,10.65
2022-12-08T03:20:10.233Z,10.80
2022-12-08T03:22:42.032Z,10.82
2022-12-08T03:25:16.513Z,10.95
2022-12-08T03:27:45.163Z,10.68
2022-12-08T03:30:14.115Z,11.07
2022-12-08T03:32:48.885Z,11.38
2022-12-08T03:35:21.401Z,10.93
2022-12-08T03:37:51.413Z,11.38
2022-12-08T03:40:21.705Z,11.68
2022-12-08T03:42:50.031Z,8.88
2022-12-08T03:45:18.617Z,7.55
2022-12-08T03:47:46.958Z,6.75
2022-12-08T03:50:15.426Z,7.18
2022-12-08T03:52:45.860Z,7.00
2022-12-08T03:55:15.694Z,7.85
2022-12-08T03:57:44.231Z,7.07
2022-12-08T04:00:17.075Z,7.32
2022-12-08T04:02:45.614Z,7.53
2022-12-08T04:05:16.319Z,7.30
2022-12-08T04:07:44.759Z,7.13
2022-12-08T04:10:13.086Z,7.78
2022-12-08T04:12:42.849Z,6.88
2022-12-08T04:15:12.332Z,7.95
2022-12-08T04:17:40.659Z,7.53
2022-12-08T04:20:09.840Z,8.60
2022-12-08T04:22:38.185Z,8.05
2022-12-08T04:25:07.874Z,7.68
2022-12-08T04:27:38.341Z,7.38
2022-12-08T04:30:09.727Z,7.15
2022-12-08T04:32:45.796Z,7.80
2022-12-08T04:35:15.654Z,11.88
2022-12-08T04:37:44.410Z,12.87
2022-12-08T04:40:14.152Z,8.57
2022-12-08T04:42:42.685Z,8.82
2022-12-08T04:45:12.796Z,8.10
2022-12-08T04:47:41.177Z,8.23
2022-12-08T04:50:10.145Z,7.88
2022-12-08T04:52:38.698Z,8.30
2022-12-08T04:55:07.854Z,8.13
2022-12-08T04:57:36.409Z,8.32
2022-12-08T05:00:06.305Z,8.73
2022-12-08T05:02:36.438Z,8.25
2022-12-08T05:05:05.219Z,7.78
2022-12-08T05:07:33.942Z,8.75
2022-12-08T05:10:05.162Z,8.60
2022-12-08T05:12:33.726Z,8.88
2022-12-08T05:15:02.221Z,8.27
2022-12-08T05:17:32.927Z,9.45
2022-12-08T05:20:03.346Z,9.00
2022-12-08T05:22:32.050Z,13.30
2022-12-08T05:25:00.576Z,14.20
2022-12-08T05:27:28.909Z,14.27
2022-12-08T05:29:57.327Z,14.43
2022-12-08T05:32:25.687Z,9.90
2022-12-08T05:34:54.056Z,10.02
2022-12-08T05:37:23.762Z,10.45
2022-12-08T05:39:54.256Z,9.07
2022-12-08T05:42:25.004Z,9.07
2022-12-08T05:44:53.887Z,9.95
2022-12-08T05:47:22.266Z,9.80
2022-12-08T05:49:50.799Z,10.18
2022-12-08T05:52:19.084Z,10.27
2022-12-08T05:54:48.874Z,11.05
2022-12-08T05:57:17.237Z,10.15
2022-12-08T06:32:05.697Z,12.00
2022-12-08T06:34:34.203Z,13.38
2022-12-08T06:37:02.573Z,13.35
2022-12-08T06:39:34.099Z,13.18
2022-12-08T06:42:20.124Z,13.52
2022-12-08T06:44:50.132Z,12.93
2022-12-08T06:47:23.335Z,12.70
2022-12-08T06:49:54.510Z,13.52
2022-12-08T06:52:22.835Z,13.73
2022-12-08T06:54:51.198Z,13.05
2022-12-08T06:57:19.677Z,14.07
2022-12-08T06:59:49.428Z,12.57
2022-12-08T07:02:18.371Z,12.73
2022-12-08T07:04:49.100Z,14.18
2022-12-08T07:07:17.435Z,15.57
2022-12-08T07:09:45.807Z,17.00
2022-12-08T07:12:14.147Z,15.55
2022-12-08T07:14:42.434Z,15.07
2022-12-08T07:17:12.360Z,13.02
2022-12-08T07:19:40.733Z,13.43
2022-12-08T07:22:09.105Z,12.93
2022-12-08T07:24:37.441Z,12.30
2022-12-08T07:27:05.753Z,11.68
2022-12-08T07:29:36.254Z,11.70
2022-12-08T07:32:04.678Z,12.02
2022-12-08T07:34:34.350Z,12.63
2022-12-08T07:37:03.632Z,12.82
2022-12-08T07:39:31.886Z,11.57
2022-12-08T07:42:00.783Z,12.18
2022-12-08T07:44:29.097Z,11.30
2022-12-08T07:46:57.388Z,11.60
2022-12-08T07:49:27.890Z,12.07
2022-12-08T07:51:57.612Z,10.98
2022-12-08T07:54:25.972Z,11.63
2022-12-08T07:56:54.333Z,14.63
2022-12-08T07:59:22.695Z,11.70
2022-12-08T08:02:11.698Z,11.40
2022-12-08T08:04:40.290Z,15.55
2022-12-08T08:07:12.516Z,18.25
2022-12-08T08:09:43.115Z,15.80
2022-12-08T08:12:30.186Z,16.35
2022-12-08T08:15:00.014Z,12.80
2022-12-08T08:17:28.572Z,12.20
2022-12-08T08:19:57.381Z,12.77
2022-12-08T08:22:27.902Z,17.00
2022-12-08T08:24:56.738Z,13.93
2022-12-08T08:27:27.886Z,14.38
2022-12-08T08:29:56.213Z,14.45
2022-12-08T08:32:24.490Z,14.48
2022-12-08T08:34:52.966Z,12.57
2022-12-08T08:37:21.376Z,12.35
2022-12-08T08:39:51.187Z,13.20
2022-12-08T08:42:19.479Z,13.85
2022-12-08T08:44:50.485Z,15.85
2022-12-08T08:47:20.862Z,14.65
2022-12-08T08:49:51.323Z,12.85
2022-12-08T08:52:22.101Z,65.93
2022-12-08T08:54:54.182Z,28.23
2022-12-08T08:57:25.791Z,18.48
2022-12-08T08:59:57.314Z,13.93
2022-12-08T09:02:25.700Z,13.05
2022-12-08T09:04:54.348Z,12.48
2022-12-08T09:07:22.806Z,12.68
2022-12-08T09:09:51.210Z,12.32
2022-12-08T09:12:20.990Z,12.60
2022-12-08T09:14:49.390Z,13.73
2022-12-08T09:17:17.784Z,13.80
2022-12-08T09:19:46.332Z,12.35
2022-12-08T09:22:17.391Z,14.43
2022-12-08T09:24:45.720Z,13.32
2022-12-08T09:27:14.128Z,15.85
2022-12-08T09:29:43.874Z,13.05
2022-12-08T09:32:12.221Z,12.77
2022-12-08T09:34:46.470Z,13.55
2022-12-08T09:37:18.898Z,13.18
2022-12-08T09:39:48.261Z,13.30
2022-12-08T09:42:28.177Z,12.98
2022-12-08T09:45:07.397Z,14.57
2022-12-08T09:47:41.072Z,12.88
2022-12-08T09:50:15.393Z,13.07
2022-12-08T09:52:47.001Z,13.25
2022-12-08T09:57:56.357Z,12.82
2022-12-08T10:00:26.559Z,12.23
2022-12-08T10:02:56.462Z,12.40
2022-12-08T10:05:27.454Z,12.25
2022-12-08T10:08:05.589Z,13.50
2022-12-08T10:10:40.455Z,13.23
2022-12-08T10:13:19.212Z,14.52
2022-12-08T10:15:58.181Z,13.63
2022-12-08T10:18:30.026Z,13.55
2022-12-08T10:21:01.631Z,14.05
2022-12-08T10:23:34.494Z,14.70
2022-12-08T10:26:05.239Z,13.07
2022-12-08T10:28:38.755Z,13.93
2022-12-08T10:31:18.497Z,13.88
2022-12-08T10:33:49.289Z,14.35
2022-12-08T10:36:17.584Z,14.60
2022-12-08T10:38:45.966Z,14.20
2022-12-08T10:41:18.151Z,15.25
2022-12-08T10:43:50.535Z,14.70
2022-12-08T10:46:22.030Z,14.02
2022-12-08T10:48:52.713Z,15.95
2022-12-08T10:51:27.931Z,16.58
2022-12-08T10:53:56.433Z,15.00
2022-12-08T10:56:28.639Z,16.90
2022-12-08T10:59:15.916Z,16.50
2022-12-08T11:01:49.313Z,14.75
2022-12-08T11:04:20.716Z,15.63
2022-12-08T11:06:50.233Z,16.25
2022-12-08T11:09:38.260Z,16.13
2022-12-08T11:12:13.702Z,30.77
2022-12-08T11:14:50.985Z,41.30
2022-12-08T11:17:27.388Z,24.15
2022-12-08T11:20:00.700Z,18.10
2022-12-08T11:22:33.595Z,16.83
2022-12-08T11:25:10.358Z,15.52
2022-12-08T11:27:43.575Z,15.68
2022-12-08T11:30:16.979Z,16.02
2022-12-08T11:32:48.446Z,14.80
2022-12-08T11:35:24.039Z,14.85
2022-12-08T11:37:56.512Z,13.93
2022-12-08T11:40:35.551Z,15.48
2022-12-08T11:43:10.498Z,15.15
2022-12-08T11:45:41.087Z,13.05
2022-12-08T11:48:15.874Z,13.93
2022-12-08T11:50:48.373Z,14.00
2022-12-08T11:53:26.184Z,13.23
2022-12-08T11:55:58.943Z,14.60
2022-12-08T11:58:36.286Z,14.48
2022-12-08T12:01:07.013Z,13.85
2022-12-08T12:03:42.685Z,15.30
2022-12-08T12:06:57.064Z,23.25
2022-12-08T12:09:38.158Z,24.23
2022-12-08T12:12:19.195Z,24.02
2022-12-08T12:15:24.094Z,19.23
2022-12-08T12:17:57.491Z,18.80
2022-12-08T12:20:31.529Z,17.40
2022-12-08T12:23:05.936Z,24.95
2022-12-08T12:25:36.057Z,52.65
2022-12-08T12:28:09.266Z,24.95
2022-12-08T12:30:54.869Z,25.02
2022-12-08T12:33:24.624Z,25.95
2022-12-08T12:35:58.583Z,24.90
2022-12-08T12:38:50.403Z,24.75
2022-12-08T12:41:25.601Z,22.85
2022-12-08T12:44:24.139Z,22.70
2022-12-08T12:46:59.446Z,20.13
2022-12-08T12:50:07.669Z,18.98
2022-12-08T12:52:55.497Z,27.98
2022-12-08T12:55:54.952Z,27.20
2022-12-08T12:58:42.579Z,26.50
2022-12-08T13:01:53.369Z,33.33
2022-12-08T13:04:31.644Z,28.40
2022-12-08T13:07:00.954Z,35.53
2022-12-08T13:09:36.332Z,34.03
2022-12-08T13:12:11.717Z,29.02
2022-12-08T13:14:48.063Z,25.75
2022-12-08T13:17:25.194Z,24.63
2022-12-08T13:19:57.216Z,23.55
2022-12-08T13:22:58.549Z,23.20
2022-12-08T13:26:12.499Z,37.70
2022-12-08T13:29:16.324Z,25.40
2022-12-08T13:31:50.528Z,22.67
2022-12-08T13:34:24.562Z,23.55
2022-12-08T13:37:01.372Z,23.65
2022-12-08T13:39:33.710Z,24.33
2022-12-08T13:42:08.503Z,22.35
2022-12-08T13:45:20.101Z,22.48
2022-12-08T13:47:37.059Z,16.98
2022-12-08T13:58:47.331Z,13.52
2022-12-08T14:01:21.273Z,13.68
2022-12-08T14:04:28.437Z,19.67
2022-12-08T14:06:46.655Z,19.40
2022-12-08T14:09:18.221Z,17.38
2022-12-08T14:11:48.926Z,16.38
2022-12-08T14:14:45.866Z,16.35
2022-12-08T14:17:14.426Z,15.13
2022-12-08T14:19:45.241Z,14.13
2022-12-08T14:22:17.999Z,13.30
2022-12-08T14:24:47.154Z,13.70
2022-12-08T14:27:18.784Z,14.48
2022-12-08T14:29:52.234Z,12.70
2022-12-08T14:32:31.480Z,12.85
2022-12-08T14:35:16.724Z,12.02
2022-12-08T14:37:47.443Z,12.18
2022-12-08T14:40:23.673Z,11.00
2022-12-08T14:42:54.268Z,10.15
2022-12-08T14:45:24.162Z,10.27
2022-12-08T14:47:52.597Z,13.93
2022-12-08T14:50:42.441Z,15.10
2022-12-08T14:53:19.256Z,11.00
2022-12-08T14:55:49.539Z,10.18
2022-12-08T14:58:24.383Z,10.18
2022-12-08T15:00:58.595Z,9.90
2022-12-08T15:03:28.195Z,9.65
2022-12-08T15:06:01.416Z,10.40
2022-12-08T15:08:30.003Z,9.03
2022-12-08T15:11:33.611Z,10.20
2022-12-08T15:14:01.993Z,10.05
2022-12-08T15:16:41.010Z,10.18
2022-12-08T15:19:27.651Z,9.35
2022-12-08T15:21:58.293Z,10.00
2022-12-08T15:24:31.827Z,10.65
2022-12-08T15:27:00.161Z,11.45
2022-12-08T15:29:30.701Z,11.25
2022-12-08T15:32:01.974Z,11.30
2022-12-08T15:34:33.339Z,12.88
2022-12-08T15:37:01.706Z,13.45
2022-12-08T15:39:35.640Z,12.98
2022-12-08T15:42:07.657Z,11.75
2022-12-08T15:44:35.968Z,11.32
2022-12-08T15:47:11.961Z,10.63
2022-12-08T15:49:40.309Z,11.50
2022-12-08T15:52:14.104Z,12.35
2022-12-08T15:54:42.574Z,17.02
2022-12-08T15:57:43.785Z,16.45
2022-12-08T16:04:19.844Z,16.57
2022-12-08T16:09:12.813Z,17.42
2022-12-08T16:12:08.495Z,18.38
2022-12-08T16:17:30.538Z,10.43
2022-12-08T16:20:00.728Z,10.77
2022-12-08T16:38:08.463Z,8.73
2022-12-08T16:40:57.744Z,10.05
2022-12-08T16:43:24.983Z,10.20
2022-12-08T16:45:53.866Z,10.77
2022-12-08T16:48:22.560Z,10.48
2022-12-08T16:50:55.541Z,9.83
2022-12-08T16:53:23.944Z,10.03
2022-12-08T16:55:52.346Z,12.07
2022-12-08T16:58:20.789Z,19.58
2022-12-08T17:00:51.299Z,17.15
2022-12-08T17:03:22.163Z,18.08
2022-12-08T17:05:54.007Z,17.30
2022-12-08T17:08:24.708Z,14.10
2022-12-08T17:11:07.441Z,13.13
2022-12-08T17:13:36.239Z,12.75
2022-12-08T17:16:10.958Z,13.00
2022-12-08T17:18:41.712Z,13.40
2022-12-08T17:21:13.075Z,13.52
2022-12-08T17:23:42.365Z,13.38
2022-12-08T17:26:10.984Z,14.60
2022-12-08T17:28:59.464Z,33.15
2022-12-08T17:31:29.862Z,37.72
2022-12-08T17:34:01.789Z,25.98
2022-12-08T17:36:31.936Z,15.02
2022-12-08T17:39:01.089Z,12.40
2022-12-08T17:41:30.403Z,10.80
2022-12-08T17:43:58.817Z,11.18
2022-12-08T17:46:27.217Z,12.82
2022-12-08T17:48:55.690Z,23.05
2022-12-08T17:51:24.046Z,15.27
2022-12-08T17:53:53.776Z,11.57
2022-12-08T17:56:23.034Z,10.95
2022-12-08T17:58:54.790Z,10.80
2022-12-08T18:01:27.658Z,10.25
2022-12-08T18:03:56.068Z,10.48
2022-12-08T18:06:28.157Z,10.13
2022-12-08T18:09:01.643Z,9.43
2022-12-08T18:11:30.434Z,8.90
2022-12-08T18:13:59.286Z,8.82
2022-12-08T18:16:28.962Z,10.65
2022-12-08T18:18:57.346Z,11.02
2022-12-08T18:21:25.624Z,10.50
2022-12-08T18:23:53.974Z,11.07
2022-12-08T18:26:25.823Z,11.90
2022-12-08T18:28:54.185Z,10.55
2022-12-08T18:31:23.589Z,9.40
2022-12-08T18:33:55.120Z,10.40
2022-12-08T20:59:45.809Z,15.27
2022-12-08T21:02:14.245Z,15.88
2022-12-08T21:04:42.909Z,15.15
2022-12-08T21:07:13.519Z,16.55
2022-12-08T21:09:42.184Z,15.40
2022-12-08T21:12:10.749Z,15.40
2022-12-08T21:14:39.317Z,15.82
2022-12-08T21:17:08.255Z,14.18
2022-12-08T21:19:36.868Z,13.60
2022-12-08T21:22:05.353Z,13.80
2022-12-08T21:24:35.172Z,13.52
2022-12-08T21:27:06.130Z,13.32
2022-12-08T21:29:34.609Z,14.05
2022-12-08T21:32:03.236Z,14.73
2022-12-08T21:34:34.339Z,17.80
2022-12-08T21:44:51.522Z,12.77
2022-12-08T21:47:20.176Z,12.07
2022-12-08T21:49:48.618Z,11.45
2022-12-08T21:52:16.912Z,10.93
2022-12-08T21:54:45.538Z,11.32
2022-12-08T21:57:16.163Z,10.82
2022-12-08T21:59:44.495Z,10.25
2022-12-08T22:02:19.460Z,11.32
2022-12-08T22:04:53.873Z,9.55
2022-12-08T22:07:22.813Z,9.55
2022-12-08T22:09:51.430Z,9.43
2022-12-08T22:12:23.916Z,9.40
2022-12-08T22:14:52.428Z,9.25
2022-12-08T22:17:23.272Z,10.05
2022-12-08T22:19:51.661Z,9.88
2022-12-08T22:22:20.015Z,9.05
2022-12-08T22:24:48.406Z,10.27
2022-12-08T22:27:16.936Z,10.25
2022-12-08T22:29:48.015Z,10.27
2022-12-08T22:32:16.519Z,11.07
2022-12-08T22:34:45.130Z,11.23
2022-12-08T22:37:13.811Z,11.32
2022-12-08T22:39:42.149Z,10.35
2022-12-08T22:42:12.734Z,10.27
2022-12-08T22:44:41.081Z,11.27
2022-12-08T22:47:13.009Z,10.45
2022-12-08T22:49:41.431Z,10.50
2022-12-08T22:52:10.090Z,11.35
2022-12-08T22:54:38.458Z,11.20
2022-12-08T22:57:06.794Z,10.70
2022-12-08T22:59:35.134Z,10.27
2022-12-08T23:02:03.626Z,11.18
2022-12-08T23:04:35.784Z,10.38
2022-12-08T23:07:06.514Z,10.32
2022-12-08T23:09:37.279Z,10.73
2022-12-08T23:12:06.349Z,10.30
2022-12-08T23:14:34.740Z,10.57
2022-12-08T23:17:03.165Z,10.50
2022-12-08T23:19:31.595Z,10.68
2022-12-08T23:22:01.298Z,10.45
2022-12-08T23:24:30.841Z,10.38
2022-12-08T23:26:59.184Z,10.82
2022-12-08T23:29:27.769Z,11.02
2022-12-08T23:31:56.208Z,10.65
2022-12-08T23:34:24.908Z,10.98
2022-12-08T23:36:53.317Z,11.25
2022-12-08T23:39:25.223Z,11.27
2022-12-08T23:41:53.748Z,10.10
2022-12-08T23:44:22.339Z,10.65
2022-12-08T23:46:50.937Z,10.95
2022-12-08T23:49:21.580Z,10.90
2022-12-08T23:51:50.070Z,11.13
2022-12-08T23:54:18.746Z,11.63
2022-12-08T23:56:50.601Z,10.50
2022-12-08T23:59:21.380Z,10.15
